createdAt,value
2022-08-27T00:00:53.542Z,0.10
2022-08-27T00:01:53.598Z,0.40
2022-08-27T00:02:53.564Z,0.30
2022-08-27T00:03:53.583Z,0.50
2022-08-27T00:04:53.490Z,0.30
2022-08-27T00:05:53.493Z,0.30
2022-08-27T00:06:53.466Z,0.20
2022-08-27T00:07:53.472Z,0.50
2022-08-27T00:08:53.462Z,0.30
2022-08-27T00:09:53.457Z,0.20
2022-08-27T00:10:53.422Z,0.10
2022-08-27T00:11:53.425Z,0.30
2022-08-27T00:12:53.405Z,0.20
2022-08-27T00:13:53.389Z,0.00
2022-08-27T00:14:53.423Z,0.40
2022-08-27T00:15:53.427Z,0.40
2022-08-27T00:16:53.401Z,0.30
2022-08-27T00:17:53.364Z,0.30
2022-08-27T00:18:53.358Z,0.20
2022-08-27T00:19:53.344Z,0.20
2022-08-27T00:20:53.315Z,0.50
2022-08-27T00:21:53.368Z,0.40
2022-08-27T00:22:53.299Z,0.10
2022-08-27T00:23:53.290Z,0.10
2022-08-27T00:24:53.259Z,0.40
2022-08-27T00:25:53.279Z,0.70
2022-08-27T00:26:53.267Z,0.50
2022-08-27T00:27:53.252Z,0.30
2022-08-27T00:28:53.242Z,0.60
2022-08-27T00:29:53.222Z,0.70
2022-08-27T00:30:53.218Z,0.30
2022-08-27T00:31:53.515Z,0.40
2022-08-27T00:32:53.196Z,0.40
2022-08-27T00:33:53.193Z,0.20
2022-08-27T00:34:53.164Z,0.30
2022-08-27T00:35:53.153Z,0.60
2022-08-27T00:36:53.204Z,0.50
2022-08-27T00:37:53.113Z,0.30
2022-08-27T00:38:53.912Z,0.60
2022-08-27T00:39:53.245Z,1.10
2022-08-27T00:40:53.104Z,0.20
2022-08-27T00:41:53.090Z,0.30
2022-08-27T00:42:53.072Z,0.60
2022-08-27T00:43:53.044Z,0.30
2022-08-27T00:44:53.057Z,0.30
2022-08-27T00:45:53.078Z,0.40
2022-08-27T00:46:53.030Z,0.20
2022-08-27T00:47:53.023Z,0.30
2022-08-27T00:48:53.007Z,0.30
2022-08-27T00:49:52.983Z,0.30
2022-08-27T00:50:53.002Z,0.50
2022-08-27T00:51:52.986Z,0.80
2022-08-27T00:52:52.957Z,0.40
2022-08-27T00:53:52.933Z,0.80
2022-08-27T00:54:52.955Z,0.40
2022-08-27T00:55:52.916Z,1.00
2022-08-27T00:56:52.926Z,0.50
2022-08-27T00:57:52.888Z,0.30
2022-08-27T00:58:52.906Z,0.30
2022-08-27T00:59:52.876Z,0.70
2022-08-27T01:00:52.885Z,0.90
2022-08-27T01:01:52.904Z,0.70
2022-08-27T01:02:52.846Z,0.60
2022-08-27T01:03:52.817Z,0.40
2022-08-27T01:04:52.810Z,0.40
2022-08-27T01:05:52.814Z,0.40
2022-08-27T01:06:52.798Z,0.30
2022-08-27T01:07:52.790Z,0.40
2022-08-27T01:08:52.818Z,0.30
2022-08-27T01:09:53.771Z,0.30
2022-08-27T01:10:52.738Z,0.40
2022-08-27T01:11:52.772Z,0.20
2022-08-27T01:12:53.759Z,0.40
2022-08-27T01:14:00.410Z,0.40
2022-08-27T01:14:53.689Z,0.30
2022-08-27T01:15:52.744Z,0.30
2022-08-27T01:16:52.700Z,0.20
2022-08-27T01:17:52.670Z,1.00
2022-08-27T01:18:52.663Z,0.90
2022-08-27T01:19:52.708Z,0.20
2022-08-27T01:20:52.626Z,0.20
2022-08-27T01:21:52.645Z,0.30
2022-08-27T01:22:52.616Z,0.40
2022-08-27T01:23:52.606Z,0.40
2022-08-27T01:24:52.587Z,0.50
2022-08-27T01:25:52.594Z,0.60
2022-08-27T01:26:52.572Z,0.80
2022-08-27T01:27:52.560Z,0.20
2022-08-27T01:28:52.604Z,0.20
2022-08-27T01:29:52.594Z,0.30
2022-08-27T01:30:52.540Z,0.40
2022-08-27T01:31:52.581Z,0.20
2022-08-27T01:32:52.516Z,0.80
2022-08-27T01:33:52.485Z,0.40
2022-08-27T01:34:52.483Z,0.70
2022-08-27T01:35:52.484Z,0.90
2022-08-27T01:36:57.270Z,0.30
2022-08-27T01:37:53.425Z,0.60
2022-08-27T01:38:52.436Z,0.70
2022-08-27T01:39:52.515Z,0.60
2022-08-27T01:40:52.425Z,0.40
2022-08-27T01:41:52.526Z,0.50
2022-08-27T01:42:52.407Z,1.00
2022-08-27T01:43:52.377Z,0.20
2022-08-27T01:44:52.368Z,0.30
2022-08-27T01:45:52.373Z,0.20
2022-08-27T01:46:52.395Z,0.50
2022-08-27T01:47:52.336Z,0.40
2022-08-27T01:48:52.327Z,0.40
2022-08-27T01:49:52.299Z,0.50
2022-08-27T01:50:52.330Z,0.30
2022-08-27T01:51:52.288Z,0.30
2022-08-27T01:52:52.278Z,0.70
2022-08-27T01:53:52.258Z,0.80
2022-08-27T01:54:52.275Z,0.40
2022-08-27T01:55:52.259Z,0.30
2022-08-27T01:56:52.229Z,0.30
2022-08-27T01:57:52.209Z,0.30
2022-08-27T01:58:52.220Z,0.20
2022-08-27T01:59:52.212Z,0.60
2022-08-27T02:00:56.301Z,0.50
2022-08-27T02:01:52.276Z,0.60
2022-08-27T02:02:52.172Z,0.20
2022-08-27T02:03:52.141Z,0.70
2022-08-27T02:04:52.168Z,0.50
2022-08-27T02:05:52.151Z,0.20
2022-08-27T02:06:52.106Z,0.70
2022-08-27T02:07:52.105Z,0.40
2022-08-27T02:08:52.093Z,0.70
2022-08-27T02:09:52.095Z,0.30
2022-08-27T02:10:52.083Z,0.60
2022-08-27T02:11:52.119Z,0.30
2022-08-27T02:12:52.043Z,0.60
2022-08-27T02:13:52.033Z,0.50
2022-08-27T02:14:52.024Z,0.60
2022-08-27T02:15:52.091Z,0.90
2022-08-27T02:16:52.837Z,0.60
2022-08-27T02:17:51.985Z,0.60
2022-08-27T02:18:51.989Z,0.40
2022-08-27T02:19:51.975Z,0.30
2022-08-27T02:20:51.977Z,0.60
2022-08-27T02:21:51.945Z,0.80
2022-08-27T02:22:51.937Z,0.70
2022-08-27T02:23:51.958Z,0.80
2022-08-27T02:24:51.934Z,0.70
2022-08-27T02:25:51.925Z,0.40
2022-08-27T02:26:51.887Z,0.60
2022-08-27T02:27:51.879Z,0.70
2022-08-27T02:28:51.916Z,0.80
2022-08-27T02:29:51.873Z,0.60
2022-08-27T02:30:51.873Z,1.20
2022-08-27T02:31:51.829Z,0.50
2022-08-27T02:32:51.828Z,0.90
2022-08-27T02:33:51.811Z,1.10
2022-08-27T02:34:51.807Z,0.60
2022-08-27T02:35:51.802Z,0.70
2022-08-27T02:36:51.792Z,0.90
2022-08-27T02:37:51.760Z,0.60
2022-08-27T02:38:51.769Z,0.60
2022-08-27T02:39:51.790Z,1.00
2022-08-27T02:40:51.749Z,0.80
2022-08-27T02:41:51.730Z,0.50
2022-08-27T02:42:51.724Z,0.50
2022-08-27T02:43:51.691Z,0.90
2022-08-27T02:44:51.714Z,1.00
2022-08-27T02:45:51.701Z,0.90
2022-08-27T02:46:53.646Z,0.90
2022-08-27T02:47:51.656Z,1.10
2022-08-27T02:48:51.652Z,0.50
2022-08-27T02:49:51.633Z,0.90
2022-08-27T02:50:51.638Z,1.00
2022-08-27T02:51:51.630Z,1.10
2022-08-27T02:52:51.611Z,1.40
2022-08-27T02:53:51.582Z,0.90
2022-08-27T02:54:51.583Z,0.90
2022-08-27T02:55:51.579Z,1.30
2022-08-27T02:56:51.561Z,1.20
2022-08-27T02:57:51.535Z,1.10
2022-08-27T02:58:51.548Z,0.90
2022-08-27T02:59:51.525Z,1.40
2022-08-27T03:00:51.533Z,1.10
2022-08-27T03:01:51.625Z,0.90
2022-08-27T03:02:51.533Z,1.50
2022-08-27T03:03:51.475Z,1.20
2022-08-27T03:04:51.504Z,1.00
2022-08-27T03:05:51.487Z,1.00
2022-08-27T03:06:51.456Z,1.30
2022-08-27T03:07:51.426Z,1.40
2022-08-27T03:08:52.936Z,0.80
2022-08-27T03:09:51.436Z,0.90
2022-08-27T03:10:51.407Z,1.60
2022-08-27T03:11:51.389Z,0.90
2022-08-27T03:12:51.427Z,1.10
2022-08-27T03:13:51.358Z,1.10
2022-08-27T03:14:51.339Z,1.70
2022-08-27T03:15:51.457Z,1.50
2022-08-27T03:16:51.331Z,1.50
2022-08-27T03:17:51.319Z,1.50
2022-08-27T03:18:51.299Z,1.80
2022-08-27T03:19:51.299Z,2.10
2022-08-27T03:20:51.288Z,1.70
2022-08-27T03:21:54.365Z,1.00
2022-08-27T03:22:51.307Z,1.90
2022-08-27T03:23:51.260Z,2.10
2022-08-27T03:24:51.229Z,1.40
2022-08-27T03:25:51.257Z,1.10
2022-08-27T03:26:52.649Z,1.30
2022-08-27T03:27:51.201Z,1.40
2022-08-27T03:28:51.193Z,1.20
2022-08-27T03:29:51.191Z,2.00
2022-08-27T03:30:51.180Z,1.70
2022-08-27T03:31:51.447Z,2.20
2022-08-27T03:32:51.142Z,1.50
2022-08-27T03:33:51.132Z,1.20
2022-08-27T03:34:51.121Z,1.50
2022-08-27T03:35:52.137Z,1.70
2022-08-27T03:36:51.151Z,1.10
2022-08-27T03:37:51.094Z,1.50
2022-08-27T03:38:51.126Z,1.50
2022-08-27T03:39:51.109Z,1.50
2022-08-27T03:40:51.073Z,1.50
2022-08-27T03:41:55.464Z,1.20
2022-08-27T03:42:51.064Z,1.60
2022-08-27T03:43:51.015Z,1.50
2022-08-27T03:44:51.005Z,1.60
2022-08-27T03:46:01.063Z,1.00
2022-08-27T03:46:51.994Z,1.10
2022-08-27T03:47:50.985Z,1.00
2022-08-27T03:48:53.856Z,2.20
2022-08-27T03:49:51.955Z,1.00
2022-08-27T03:50:50.955Z,1.40
2022-08-27T03:51:50.941Z,2.40
2022-08-27T03:52:50.928Z,1.30
2022-08-27T03:53:50.899Z,0.80
2022-08-27T03:54:50.898Z,1.20
2022-08-27T03:55:50.912Z,1.60
2022-08-27T03:56:50.894Z,1.50
2022-08-27T03:57:50.855Z,1.40
2022-08-27T03:58:50.859Z,1.50
2022-08-27T03:59:54.216Z,1.20
2022-08-27T04:00:50.849Z,1.60
2022-08-27T04:01:50.849Z,1.40
2022-08-27T04:02:50.960Z,1.40
2022-08-27T04:03:50.807Z,1.20
2022-08-27T04:04:50.940Z,1.20
2022-08-27T04:05:50.804Z,1.70
2022-08-27T04:06:50.759Z,2.00
2022-08-27T04:07:50.751Z,1.80
2022-08-27T04:08:50.740Z,1.70
2022-08-27T04:09:50.723Z,2.10
2022-08-27T04:10:50.740Z,1.80
2022-08-27T04:11:50.710Z,2.00
2022-08-27T04:12:50.691Z,1.50
2022-08-27T04:13:50.671Z,1.60
2022-08-27T04:14:50.689Z,2.40
2022-08-27T04:15:50.700Z,2.40
2022-08-27T04:16:50.792Z,1.70
2022-08-27T04:17:50.652Z,2.10
2022-08-27T04:18:50.622Z,3.10
2022-08-27T04:19:50.603Z,1.40
2022-08-27T04:20:50.603Z,1.50
2022-08-27T04:21:50.604Z,1.60
2022-08-27T04:22:50.573Z,1.80
2022-08-27T04:23:50.572Z,1.40
2022-08-27T04:24:50.554Z,2.00
2022-08-27T04:25:50.533Z,2.00
2022-08-27T04:26:50.544Z,2.10
2022-08-27T04:27:50.544Z,2.40
2022-08-27T04:28:50.516Z,1.80
2022-08-27T04:29:50.493Z,2.10
2022-08-27T04:30:50.552Z,2.10
2022-08-27T04:31:50.474Z,1.00
2022-08-27T04:32:50.466Z,1.70
2022-08-27T04:33:50.875Z,1.80
2022-08-27T04:34:50.437Z,1.40
2022-08-27T04:35:50.446Z,1.80
2022-08-27T04:36:50.450Z,1.40
2022-08-27T04:37:50.407Z,1.70
2022-08-27T04:38:50.387Z,2.20
2022-08-27T04:39:50.447Z,1.20
2022-08-27T04:40:50.390Z,1.50
2022-08-27T04:41:50.368Z,1.60
2022-08-27T04:42:50.346Z,1.00
2022-08-27T04:43:50.347Z,2.20
2022-08-27T04:44:50.318Z,2.30
2022-08-27T04:45:50.311Z,1.90
2022-08-27T04:46:50.344Z,0.80
2022-08-27T04:47:50.300Z,1.40
2022-08-27T04:48:50.389Z,1.80
2022-08-27T04:49:50.279Z,1.00
2022-08-27T04:50:50.282Z,1.70
2022-08-27T04:51:50.650Z,1.80
2022-08-27T04:52:50.240Z,1.50
2022-08-27T04:53:50.241Z,1.90
2022-08-27T04:54:50.209Z,1.70
2022-08-27T04:55:50.211Z,1.30
2022-08-27T04:56:50.191Z,1.70
2022-08-27T04:57:50.182Z,1.40
2022-08-27T04:58:50.163Z,1.40
2022-08-27T04:59:50.161Z,1.60
2022-08-27T05:00:50.162Z,1.50
2022-08-27T05:01:50.160Z,1.50
2022-08-27T05:02:50.122Z,1.60
2022-08-27T05:03:50.122Z,1.20
2022-08-27T05:04:50.139Z,1.40
2022-08-27T05:05:50.092Z,1.30
2022-08-27T05:06:50.113Z,1.20
2022-08-27T05:07:50.064Z,1.70
2022-08-27T05:08:50.055Z,2.00
2022-08-27T05:09:50.044Z,1.50
2022-08-27T05:10:50.034Z,0.60
2022-08-27T05:11:50.034Z,1.50
2022-08-27T05:12:50.160Z,1.40
2022-08-27T05:13:50.150Z,1.60
2022-08-27T05:14:49.988Z,1.00
2022-08-27T05:15:50.034Z,0.90
2022-08-27T05:16:49.987Z,0.60
2022-08-27T05:17:49.956Z,0.70
2022-08-27T05:18:49.944Z,1.60
2022-08-27T05:19:49.948Z,1.40
2022-08-27T05:20:49.930Z,1.60
2022-08-27T05:21:49.917Z,1.20
2022-08-27T05:22:49.915Z,0.90
2022-08-27T05:23:49.897Z,1.50
2022-08-27T05:24:50.513Z,1.10
2022-08-27T05:25:49.867Z,1.10
2022-08-27T05:26:49.890Z,1.20
2022-08-27T05:27:49.841Z,1.00
2022-08-27T05:28:49.837Z,1.20
2022-08-27T05:29:49.819Z,1.70
2022-08-27T05:30:55.159Z,0.90
2022-08-27T05:31:50.800Z,1.00
2022-08-27T05:32:49.792Z,1.40
2022-08-27T05:33:49.768Z,0.80
2022-08-27T05:34:49.750Z,1.40
2022-08-27T05:35:49.768Z,1.00
2022-08-27T05:36:49.770Z,1.00
2022-08-27T05:37:49.731Z,1.20
2022-08-27T05:38:49.720Z,1.60
2022-08-27T05:39:49.749Z,1.70
2022-08-27T05:40:49.691Z,1.20
2022-08-27T05:41:49.699Z,1.40
2022-08-27T05:42:51.230Z,1.30
2022-08-27T05:43:50.673Z,0.70
2022-08-27T05:44:49.642Z,1.00
2022-08-27T05:45:49.673Z,0.80
2022-08-27T05:46:49.667Z,0.90
2022-08-27T05:47:49.613Z,1.10
2022-08-27T05:48:49.603Z,0.70
2022-08-27T05:49:49.592Z,0.60
2022-08-27T05:50:49.583Z,1.50
2022-08-27T05:51:49.574Z,1.10
2022-08-27T05:52:49.563Z,1.60
2022-08-27T05:53:49.551Z,1.40
2022-08-27T05:54:49.533Z,1.10
2022-08-27T05:55:49.534Z,1.00
2022-08-27T05:56:49.516Z,1.00
2022-08-27T05:57:49.566Z,1.80
2022-08-27T05:58:49.500Z,1.40
2022-08-27T05:59:49.476Z,1.30
2022-08-27T06:00:49.468Z,0.70
2022-08-27T06:01:49.477Z,1.40
2022-08-27T06:02:49.486Z,1.10
2022-08-27T06:03:49.440Z,1.00
2022-08-27T06:04:49.482Z,0.80
2022-08-27T06:05:49.407Z,0.90
2022-08-27T06:06:49.407Z,1.40
2022-08-27T06:07:49.387Z,1.00
2022-08-27T06:08:49.378Z,1.30
2022-08-27T06:09:49.357Z,1.10
2022-08-27T06:10:49.357Z,0.80
2022-08-27T06:11:49.358Z,0.70
2022-08-27T06:12:51.752Z,1.00
2022-08-27T06:13:50.318Z,1.40
2022-08-27T06:14:49.328Z,1.30
2022-08-27T06:15:49.322Z,1.20
2022-08-27T06:16:49.310Z,1.30
2022-08-27T06:17:49.278Z,0.70
2022-08-27T06:18:49.273Z,1.30
2022-08-27T06:19:49.250Z,1.50
2022-08-27T06:20:49.240Z,0.80
2022-08-27T06:22:01.070Z,1.20
2022-08-27T06:22:50.232Z,1.10
2022-08-27T06:23:49.202Z,1.30
2022-08-27T06:24:49.201Z,2.20
2022-08-27T06:25:49.200Z,1.10
2022-08-27T06:26:49.181Z,1.00
2022-08-27T06:27:49.151Z,1.80
2022-08-27T06:28:49.162Z,1.50
2022-08-27T06:29:49.142Z,1.60
2022-08-27T06:30:49.164Z,0.90
2022-08-27T06:31:49.132Z,0.80
2022-08-27T06:32:49.122Z,1.40
2022-08-27T06:33:49.083Z,1.30
2022-08-27T06:34:49.083Z,1.20
2022-08-27T06:35:49.085Z,1.00
2022-08-27T06:36:49.085Z,1.20
2022-08-27T06:37:49.055Z,1.20
2022-08-27T06:38:49.034Z,0.90
2022-08-27T06:39:49.044Z,1.10
2022-08-27T06:40:49.034Z,0.80
2022-08-27T06:41:49.014Z,0.80
2022-08-27T06:42:48.995Z,0.80
2022-08-27T06:43:48.980Z,0.50
2022-08-27T06:44:48.975Z,0.90
2022-08-27T06:45:49.035Z,1.00
2022-08-27T06:46:48.949Z,1.00
2022-08-27T06:47:48.949Z,1.40
2022-08-27T06:48:48.926Z,0.60
2022-08-27T06:49:48.922Z,1.30
2022-08-27T06:50:48.916Z,0.80
2022-08-27T06:51:48.906Z,1.70
2022-08-27T06:52:48.877Z,1.50
2022-08-27T06:53:48.857Z,0.90
2022-08-27T06:54:48.856Z,1.20
2022-08-27T06:55:48.859Z,0.70
2022-08-27T06:56:48.828Z,1.10
2022-08-27T06:57:48.828Z,1.80
2022-08-27T06:58:48.829Z,1.20
2022-08-27T06:59:48.799Z,1.50
2022-08-27T07:00:49.139Z,1.10
2022-08-27T07:01:48.996Z,0.80
2022-08-27T07:02:48.830Z,0.90
2022-08-27T07:03:49.522Z,1.20
2022-08-27T07:04:48.749Z,1.40
2022-08-27T07:05:48.740Z,0.90
2022-08-27T07:06:48.719Z,1.20
2022-08-27T07:07:49.006Z,1.40
2022-08-27T07:08:53.691Z,0.70
2022-08-27T07:09:49.682Z,1.10
2022-08-27T07:10:48.705Z,0.70
2022-08-27T07:11:48.671Z,0.70
2022-08-27T07:12:48.659Z,1.10
2022-08-27T07:13:48.650Z,1.20
2022-08-27T07:14:48.631Z,0.80
2022-08-27T07:15:48.691Z,0.80
2022-08-27T07:16:48.623Z,0.80
2022-08-27T07:17:48.604Z,0.90
2022-08-27T07:18:48.601Z,1.30
2022-08-27T07:19:48.574Z,0.60
2022-08-27T07:20:48.573Z,1.50
2022-08-27T07:21:48.554Z,0.60
2022-08-27T07:22:48.535Z,1.40
2022-08-27T07:23:48.524Z,1.00
2022-08-27T07:24:48.517Z,1.00
2022-08-27T07:25:48.494Z,1.30
2022-08-27T07:26:48.505Z,1.20
2022-08-27T07:27:48.484Z,0.80
2022-08-27T07:28:50.280Z,1.10
2022-08-27T07:29:48.475Z,0.80
2022-08-27T07:30:48.513Z,0.80
2022-08-27T07:31:48.450Z,1.00
2022-08-27T07:32:48.435Z,1.10
2022-08-27T07:33:52.586Z,1.80
2022-08-27T07:34:48.396Z,0.50
2022-08-27T07:35:48.407Z,0.50
2022-08-27T07:36:48.406Z,1.10
2022-08-27T07:37:48.367Z,0.80
2022-08-27T07:38:57.073Z,1.00
2022-08-27T07:39:49.366Z,1.00
2022-08-27T07:40:48.327Z,0.50
2022-08-27T07:41:48.372Z,1.00
2022-08-27T07:42:48.308Z,0.60
2022-08-27T07:43:48.308Z,1.00
2022-08-27T07:44:48.290Z,0.80
2022-08-27T07:45:48.337Z,0.90
2022-08-27T07:46:49.429Z,0.90
2022-08-27T07:47:48.259Z,0.40
2022-08-27T07:48:48.249Z,0.50
2022-08-27T07:49:48.591Z,0.20
2022-08-27T07:50:48.218Z,0.30
2022-08-27T07:51:48.220Z,0.60
2022-08-27T07:52:48.210Z,1.00
2022-08-27T07:53:48.181Z,0.40
2022-08-27T07:54:48.171Z,0.50
2022-08-27T07:55:48.179Z,0.30
2022-08-27T07:56:55.018Z,1.10
2022-08-27T07:57:49.141Z,0.40
2022-08-27T07:58:48.132Z,0.40
2022-08-27T07:59:48.122Z,0.50
2022-08-27T08:00:48.104Z,1.10
2022-08-27T08:01:48.161Z,0.60
2022-08-27T08:02:48.157Z,0.60
2022-08-27T08:03:48.080Z,0.50
2022-08-27T08:04:48.072Z,0.50
2022-08-27T08:05:48.058Z,0.80
2022-08-27T08:06:48.063Z,0.50
2022-08-27T08:07:48.026Z,0.70
2022-08-27T08:08:48.024Z,0.70
2022-08-27T08:09:48.014Z,0.40
2022-08-27T08:10:48.006Z,0.20
2022-08-27T08:11:47.995Z,0.40
2022-08-27T08:12:47.984Z,1.00
2022-08-27T08:13:47.977Z,0.60
2022-08-27T08:14:47.952Z,1.40
2022-08-27T08:15:47.945Z,0.80
2022-08-27T08:16:48.089Z,0.80
2022-08-27T08:17:47.917Z,0.30
2022-08-27T08:18:47.906Z,0.30
2022-08-27T08:20:08.516Z,0.60
2022-08-27T08:20:58.078Z,1.10
2022-08-27T08:21:48.891Z,1.20
2022-08-27T08:22:47.858Z,0.80
2022-08-27T08:23:47.848Z,0.40
2022-08-27T08:24:47.838Z,0.60
2022-08-27T08:25:47.846Z,0.60
2022-08-27T08:26:47.837Z,0.40
2022-08-27T08:27:47.808Z,0.70
2022-08-27T08:28:47.809Z,0.40
2022-08-27T08:29:47.779Z,0.70
2022-08-27T08:30:47.850Z,0.90
2022-08-27T08:31:50.183Z,0.70
2022-08-27T08:32:47.739Z,0.70
2022-08-27T08:33:47.739Z,0.90
2022-08-27T08:34:47.732Z,0.70
2022-08-27T08:35:47.711Z,0.50
2022-08-27T08:36:53.994Z,0.60
2022-08-27T08:37:48.701Z,0.90
2022-08-27T08:38:47.684Z,0.40
2022-08-27T08:39:47.661Z,0.70
2022-08-27T08:40:47.671Z,0.50
2022-08-27T08:41:47.671Z,0.40
2022-08-27T08:42:50.614Z,0.80
2022-08-27T08:43:47.630Z,0.70
2022-08-27T08:44:47.621Z,0.30
2022-08-27T08:45:47.633Z,0.40
2022-08-27T08:46:47.612Z,0.50
2022-08-27T08:47:47.593Z,0.60
2022-08-27T08:48:47.573Z,0.60
2022-08-27T08:49:47.556Z,0.80
2022-08-27T08:50:47.566Z,0.90
2022-08-27T08:51:47.543Z,1.10
2022-08-27T08:52:47.523Z,0.40
2022-08-27T08:53:47.514Z,0.50
2022-08-27T08:54:47.522Z,0.60
2022-08-27T08:55:47.486Z,0.50
2022-08-27T08:56:49.896Z,0.60
2022-08-27T08:57:47.474Z,0.80
2022-08-27T08:58:47.458Z,1.00
2022-08-27T08:59:47.437Z,0.50
2022-08-27T09:00:47.435Z,0.60
2022-08-27T09:01:47.466Z,0.80
2022-08-27T09:02:47.417Z,0.70
2022-08-27T09:03:47.478Z,0.90
2022-08-27T09:04:47.386Z,0.70
2022-08-27T09:05:47.378Z,0.60
2022-08-27T09:06:47.387Z,1.10
2022-08-27T09:07:47.387Z,0.50
2022-08-27T09:08:47.588Z,1.20
2022-08-27T09:09:47.337Z,0.70
2022-08-27T09:10:47.331Z,0.80
2022-08-27T09:11:47.330Z,0.60
2022-08-27T09:12:47.293Z,0.90
2022-08-27T09:13:47.299Z,0.60
2022-08-27T09:14:47.273Z,1.20
2022-08-27T09:15:47.267Z,0.60
2022-08-27T09:16:47.307Z,0.50
2022-08-27T09:17:47.251Z,0.60
2022-08-27T09:18:51.153Z,0.50
2022-08-27T09:19:48.233Z,0.60
2022-08-27T09:20:48.386Z,0.60
2022-08-27T09:21:47.220Z,1.10
2022-08-27T09:22:47.201Z,0.30
2022-08-27T09:23:47.181Z,0.90
2022-08-27T09:24:47.161Z,0.60
2022-08-27T09:25:47.154Z,0.60
2022-08-27T09:26:47.162Z,0.70
2022-08-27T09:27:47.130Z,1.30
2022-08-27T09:28:47.161Z,0.70
2022-08-27T09:29:47.112Z,0.70
2022-08-27T09:30:47.137Z,0.40
2022-08-27T09:31:47.083Z,0.60
2022-08-27T09:32:47.099Z,0.80
2022-08-27T09:33:56.992Z,0.60
2022-08-27T09:34:48.052Z,0.50
2022-08-27T09:35:47.033Z,0.70
2022-08-27T09:36:47.028Z,0.80
2022-08-27T09:37:47.015Z,0.80
2022-08-27T09:38:47.006Z,0.30
2022-08-27T09:39:47.984Z,0.70
2022-08-27T09:40:47.016Z,0.60
2022-08-27T09:41:46.968Z,1.10
2022-08-27T09:42:48.742Z,0.60
2022-08-27T09:43:46.946Z,1.10
2022-08-27T09:44:51.507Z,0.60
2022-08-27T09:45:47.947Z,0.50
2022-08-27T09:46:46.927Z,0.60
2022-08-27T09:47:46.927Z,0.40
2022-08-27T09:48:46.926Z,1.00
2022-08-27T09:49:46.875Z,0.70
2022-08-27T09:50:46.870Z,0.60
2022-08-27T09:51:46.847Z,0.30
2022-08-27T09:52:46.878Z,0.60
2022-08-27T09:53:46.834Z,0.20
2022-08-27T09:54:46.818Z,0.40
2022-08-27T09:55:46.818Z,0.50
2022-08-27T09:56:46.802Z,0.50
2022-08-27T09:57:46.801Z,1.10
2022-08-27T09:58:46.790Z,0.60
2022-08-27T09:59:46.762Z,0.50
2022-08-27T10:00:46.791Z,0.40
2022-08-27T10:01:46.761Z,0.30
2022-08-27T10:02:46.750Z,0.80
2022-08-27T10:03:46.752Z,0.70
2022-08-27T10:04:51.224Z,0.50
2022-08-27T10:05:47.711Z,0.90
2022-08-27T10:06:46.691Z,0.60
2022-08-27T10:07:46.701Z,0.40
2022-08-27T10:08:46.673Z,0.60
2022-08-27T10:09:46.658Z,0.60
2022-08-27T10:10:46.642Z,0.50
2022-08-27T10:11:46.642Z,0.70
2022-08-27T10:12:46.644Z,0.30
2022-08-27T10:13:46.616Z,0.50
2022-08-27T10:14:46.601Z,0.50
2022-08-27T10:15:49.425Z,0.60
2022-08-27T10:16:46.642Z,0.40
2022-08-27T10:17:46.573Z,0.40
2022-08-27T10:18:46.555Z,0.20
2022-08-27T10:19:46.535Z,0.70
2022-08-27T10:20:46.526Z,0.50
2022-08-27T10:21:46.536Z,0.70
2022-08-27T10:22:46.535Z,0.40
2022-08-27T10:23:46.495Z,0.50
2022-08-27T10:24:46.486Z,0.40
2022-08-27T10:25:46.476Z,1.10
2022-08-27T10:26:46.455Z,0.40
2022-08-27T10:27:46.471Z,1.10
2022-08-27T10:28:46.447Z,0.50
2022-08-27T10:29:46.429Z,0.40
2022-08-27T10:30:46.416Z,0.70
2022-08-27T10:31:46.551Z,0.90
2022-08-27T10:32:46.417Z,0.50
2022-08-27T10:33:47.396Z,0.80
2022-08-27T10:34:46.377Z,0.80
2022-08-27T10:35:46.850Z,0.70
2022-08-27T10:36:47.348Z,0.80
2022-08-27T10:37:46.360Z,0.90
2022-08-27T10:38:46.338Z,1.00
2022-08-27T10:39:46.330Z,0.70
2022-08-27T10:40:46.299Z,0.90
2022-08-27T10:41:46.309Z,0.60
2022-08-27T10:42:46.297Z,0.60
2022-08-27T10:43:46.269Z,0.80
2022-08-27T10:44:46.286Z,0.80
2022-08-27T10:45:46.303Z,1.20
2022-08-27T10:46:46.844Z,1.50
2022-08-27T10:47:46.240Z,0.60
2022-08-27T10:48:46.210Z,1.20
2022-08-27T10:49:46.198Z,1.10
2022-08-27T10:50:46.209Z,1.00
2022-08-27T10:51:46.170Z,1.00
2022-08-27T10:52:46.191Z,1.00
2022-08-27T10:53:47.146Z,0.80
2022-08-27T10:54:46.156Z,0.70
2022-08-27T10:55:46.132Z,1.30
2022-08-27T10:56:46.122Z,1.20
2022-08-27T10:57:57.734Z,0.60
2022-08-27T10:58:47.158Z,0.60
2022-08-27T10:59:46.081Z,0.80
2022-08-27T11:00:46.151Z,1.20
2022-08-27T11:01:46.108Z,1.10
2022-08-27T11:02:46.064Z,0.80
2022-08-27T11:03:46.044Z,0.80
2022-08-27T11:04:46.045Z,1.20
2022-08-27T11:05:46.026Z,0.80
2022-08-27T11:06:46.016Z,0.90
2022-08-27T11:07:46.015Z,0.80
2022-08-27T11:08:45.985Z,0.50
2022-08-27T11:09:45.968Z,1.30
2022-08-27T11:10:45.964Z,0.80
2022-08-27T11:12:46.946Z,1.00
2022-08-27T11:13:45.937Z,0.90
2022-08-27T11:14:45.928Z,0.60
2022-08-27T11:15:45.907Z,0.90
2022-08-27T11:16:45.968Z,0.80
2022-08-27T11:17:45.897Z,0.70
2022-08-27T11:18:45.868Z,0.60
2022-08-27T11:19:45.858Z,0.70
2022-08-27T11:20:45.858Z,0.90
2022-08-27T11:21:45.838Z,0.60
2022-08-27T11:22:45.829Z,1.00
2022-08-27T11:23:45.836Z,0.80
2022-08-27T11:24:45.830Z,0.60
2022-08-27T11:25:45.790Z,1.30
2022-08-27T11:26:45.797Z,0.60
2022-08-27T11:27:45.791Z,1.00
2022-08-27T11:28:45.752Z,0.70
2022-08-27T11:29:45.758Z,0.60
2022-08-27T11:30:45.730Z,0.70
2022-08-27T11:31:45.790Z,0.90
2022-08-27T11:32:45.732Z,0.90
2022-08-27T11:33:46.362Z,0.70
2022-08-27T11:34:45.691Z,1.20
2022-08-27T11:35:45.713Z,1.60
2022-08-27T11:36:45.667Z,0.50
2022-08-27T11:37:45.662Z,0.70
2022-08-27T11:38:45.671Z,0.60
2022-08-27T11:39:48.624Z,0.50
2022-08-27T11:40:46.627Z,0.90
2022-08-27T11:41:45.666Z,0.80
2022-08-27T11:42:45.614Z,0.90
2022-08-27T11:43:45.595Z,0.90
2022-08-27T11:44:45.578Z,0.30
2022-08-27T11:45:48.310Z,1.00
2022-08-27T11:46:45.659Z,0.50
2022-08-27T11:47:45.545Z,0.90
2022-08-27T11:48:45.536Z,0.70
2022-08-27T11:49:45.693Z,0.30
2022-08-27T11:50:45.514Z,1.00
2022-08-27T11:51:45.506Z,0.60
2022-08-27T11:52:45.515Z,0.60
2022-08-27T11:53:52.458Z,0.90
2022-08-27T11:54:46.468Z,2.10
2022-08-27T11:55:45.460Z,0.90
2022-08-27T11:56:45.438Z,0.40
2022-08-27T11:57:45.440Z,1.30
2022-08-27T11:58:52.834Z,0.90
2022-08-27T11:59:46.397Z,0.70
2022-08-27T12:00:45.388Z,0.70
2022-08-27T12:01:45.397Z,1.00
2022-08-27T12:02:45.369Z,0.60
2022-08-27T12:03:45.392Z,0.50
2022-08-27T12:04:45.835Z,0.80
2022-08-27T12:05:45.405Z,0.60
2022-08-27T12:06:45.331Z,0.50
2022-08-27T12:07:45.319Z,0.40
2022-08-27T12:08:45.291Z,0.50
2022-08-27T12:09:45.293Z,0.30
2022-08-27T12:10:45.280Z,0.80
2022-08-27T12:11:45.451Z,0.90
2022-08-27T12:12:45.260Z,0.90
2022-08-27T12:13:45.240Z,0.40
2022-08-27T12:14:45.223Z,0.50
2022-08-27T12:15:45.221Z,0.70
2022-08-27T12:16:45.272Z,0.70
2022-08-27T12:17:45.211Z,0.40
2022-08-27T12:18:45.182Z,0.60
2022-08-27T12:19:45.171Z,1.40
2022-08-27T12:20:45.153Z,0.30
2022-08-27T12:21:45.145Z,0.30
2022-08-27T12:22:45.151Z,0.60
2022-08-27T12:23:45.123Z,0.80
2022-08-27T12:24:45.123Z,0.50
2022-08-27T12:25:45.084Z,0.50
2022-08-27T12:26:45.083Z,1.10
2022-08-27T12:27:45.103Z,0.60
2022-08-27T12:28:45.055Z,0.20
2022-08-27T12:29:45.045Z,0.50
2022-08-27T12:30:45.038Z,0.70
2022-08-27T12:31:45.062Z,0.70
2022-08-27T12:32:45.026Z,0.50
2022-08-27T12:33:45.017Z,1.00
2022-08-27T12:34:44.986Z,0.70
2022-08-27T12:35:44.981Z,1.00
2022-08-27T12:36:44.977Z,0.50
2022-08-27T12:37:44.987Z,0.30
2022-08-27T12:38:47.395Z,0.80
2022-08-27T12:39:45.935Z,0.40
2022-08-27T12:40:44.928Z,0.40
2022-08-27T12:41:45.110Z,0.90
2022-08-27T12:42:44.900Z,0.30
2022-08-27T12:43:44.900Z,0.40
2022-08-27T12:44:44.869Z,0.30
2022-08-27T12:45:44.859Z,0.50
2022-08-27T12:46:44.952Z,0.30
2022-08-27T12:47:50.890Z,0.70
2022-08-27T12:48:45.831Z,0.80
2022-08-27T12:49:44.832Z,0.30
2022-08-27T12:50:44.813Z,0.40
2022-08-27T12:51:44.801Z,0.40
2022-08-27T12:52:44.812Z,0.40
2022-08-27T12:53:44.776Z,0.40
2022-08-27T12:54:44.763Z,1.30
2022-08-27T12:55:44.753Z,0.50
2022-08-27T12:56:44.751Z,0.30
2022-08-27T12:57:44.753Z,0.40
2022-08-27T12:58:44.759Z,0.20
2022-08-27T12:59:44.727Z,0.50
2022-08-27T13:00:44.778Z,0.50
2022-08-27T13:01:44.780Z,0.20
2022-08-27T13:02:44.677Z,0.30
2022-08-27T13:03:44.676Z,0.40
2022-08-27T13:04:44.676Z,0.30
2022-08-27T13:05:44.657Z,0.50
2022-08-27T13:06:44.643Z,0.40
2022-08-27T13:07:44.634Z,0.40
2022-08-27T13:08:44.616Z,0.20
2022-08-27T13:09:44.587Z,0.30
2022-08-27T13:10:44.617Z,1.00
2022-08-27T13:11:44.585Z,0.40
2022-08-27T13:12:44.565Z,0.40
2022-08-27T13:13:44.559Z,0.40
2022-08-27T13:14:44.570Z,0.70
2022-08-27T13:15:45.553Z,0.40
2022-08-27T13:16:44.608Z,0.30
2022-08-27T13:17:44.555Z,0.30
2022-08-27T13:18:44.493Z,0.30
2022-08-27T13:19:44.492Z,0.80